createdAt,value
2023-04-15T00:00:00.748Z,68.16
2023-04-15T00:01:00.745Z,67.44
2023-04-15T00:02:00.800Z,66.52
2023-04-15T00:03:00.747Z,66.45
2023-04-15T00:04:00.782Z,67.07
2023-04-15T00:05:00.708Z,67.27
2023-04-15T00:06:00.642Z,67.30
2023-04-15T00:07:00.646Z,68.43
2023-04-15T00:08:00.618Z,68.23
2023-04-15T00:09:01.008Z,67.30
2023-04-15T00:10:00.602Z,67.54
2023-04-15T00:11:00.616Z,70.73
2023-04-15T00:12:00.596Z,70.73
2023-04-15T00:13:00.831Z,71.11
2023-04-15T00:14:00.589Z,68.61
2023-04-15T00:15:00.554Z,70.25
2023-04-15T00:16:00.548Z,67.79
2023-04-15T00:17:00.621Z,69.32
2023-04-15T00:18:00.670Z,67.99
2023-04-15T00:19:00.741Z,66.45
2023-04-15T00:20:00.513Z,67.58
2023-04-15T00:21:00.482Z,67.38
2023-04-15T00:22:00.494Z,68.43
2023-04-15T00:23:00.472Z,67.20
2023-04-15T00:24:00.507Z,68.43
2023-04-15T00:25:00.500Z,69.05
2023-04-15T00:26:00.449Z,67.75
2023-04-15T00:27:00.509Z,67.13
2023-04-15T00:28:00.440Z,69.90
2023-04-15T00:29:00.577Z,68.46
2023-04-15T00:30:00.456Z,68.05
2023-04-15T00:31:00.472Z,68.67
2023-04-15T00:32:00.413Z,70.32
2023-04-15T00:33:00.395Z,68.46
2023-04-15T00:34:00.409Z,70.32
2023-04-15T00:35:00.357Z,69.29
2023-04-15T00:36:00.364Z,69.73
2023-04-15T00:37:00.365Z,71.96
2023-04-15T00:38:00.325Z,72.06
2023-04-15T00:39:00.569Z,67.95
2023-04-15T00:40:00.369Z,67.85
2023-04-15T00:41:00.335Z,69.63
2023-04-15T00:42:00.294Z,69.42
2023-04-15T00:43:00.309Z,68.91
2023-04-15T00:44:00.263Z,70.35
2023-04-15T00:45:00.274Z,69.63
2023-04-15T00:46:00.373Z,72.38
2023-04-15T00:47:00.273Z,73.19
2023-04-15T00:48:00.389Z,72.75
2023-04-15T00:49:00.403Z,68.85
2023-04-15T00:50:00.249Z,68.85
2023-04-15T00:51:00.500Z,67.30
2023-04-15T00:52:00.223Z,68.64
2023-04-15T00:53:00.171Z,71.21
2023-04-15T00:54:00.201Z,71.08
2023-04-15T00:55:00.214Z,69.32
2023-04-15T00:56:00.149Z,68.30
2023-04-15T00:57:00.149Z,67.71
2023-04-15T00:58:00.154Z,68.02
2023-04-15T00:59:00.416Z,68.98
2023-04-15T01:00:00.171Z,70.94
2023-04-15T01:01:00.168Z,72.38
2023-04-15T01:02:00.186Z,71.66
2023-04-15T01:03:00.432Z,70.62
2023-04-15T01:04:00.315Z,71.75
2023-04-15T01:05:00.087Z,73.50
2023-04-15T01:06:02.124Z,70.01
2023-04-15T01:07:00.079Z,68.88
2023-04-15T01:08:00.093Z,70.62
2023-04-15T01:09:00.186Z,71.55
2023-04-15T01:10:00.076Z,72.89
2023-04-15T01:11:00.004Z,70.94
2023-04-15T01:12:00.101Z,72.89
2023-04-15T01:12:59.997Z,71.48
2023-04-15T01:14:00.018Z,74.33
2023-04-15T01:14:59.976Z,73.71
2023-04-15T01:15:59.981Z,73.40
2023-04-15T01:17:00.002Z,72.27
2023-04-15T01:18:00.006Z,71.96
2023-04-15T01:19:00.228Z,70.01
2023-04-15T01:19:59.995Z,70.11
2023-04-15T01:20:59.902Z,72.09
2023-04-15T01:21:59.907Z,71.31
2023-04-15T01:22:59.889Z,71.72
2023-04-15T01:23:59.994Z,71.96
2023-04-15T01:24:59.914Z,72.27
2023-04-15T01:26:00.121Z,72.71
2023-04-15T01:26:59.893Z,73.95
2023-04-15T01:27:59.934Z,73.85
2023-04-15T01:29:00.159Z,74.05
2023-04-15T01:29:59.861Z,74.19
2023-04-15T01:30:59.831Z,77.18
2023-04-15T01:31:59.828Z,76.42
2023-04-15T01:32:59.912Z,75.90
2023-04-15T01:33:59.801Z,77.21
2023-04-15T01:34:59.784Z,75.77
2023-04-15T01:35:59.783Z,73.50
2023-04-15T01:36:59.759Z,74.70
2023-04-15T01:37:59.756Z,72.34
2023-04-15T01:39:00.100Z,72.03
2023-04-15T01:39:59.784Z,73.09
2023-04-15T01:40:59.723Z,72.27
2023-04-15T01:41:59.742Z,72.78
2023-04-15T01:42:59.692Z,74.26
2023-04-15T01:43:59.843Z,74.88
2023-04-15T01:44:59.751Z,74.77
2023-04-15T01:45:59.674Z,75.18
2023-04-15T01:47:00.241Z,74.57
2023-04-15T01:47:59.716Z,76.46
2023-04-15T01:48:59.876Z,75.94
2023-04-15T01:49:59.786Z,77.28
2023-04-15T01:50:59.650Z,75.63
2023-04-15T01:51:59.632Z,76.83
2023-04-15T01:52:59.639Z,78.89
2023-04-15T01:53:59.591Z,78.96
2023-04-15T01:54:59.586Z,78.14
2023-04-15T01:55:59.678Z,77.89
2023-04-15T01:56:59.591Z,77.14
2023-04-15T01:57:59.578Z,73.33
2023-04-15T01:58:59.781Z,72.61
2023-04-15T01:59:59.584Z,72.20
2023-04-15T02:00:59.552Z,73.02
2023-04-15T02:01:59.513Z,73.06
2023-04-15T02:02:59.600Z,74.40
2023-04-15T02:03:59.619Z,75.97
2023-04-15T02:04:59.590Z,75.05
2023-04-15T02:05:59.588Z,74.22
2023-04-15T02:06:59.442Z,74.95
2023-04-15T02:07:59.470Z,75.56
2023-04-15T02:08:59.596Z,75.90
2023-04-15T02:09:59.490Z,75.39
2023-04-15T02:10:59.414Z,74.88
2023-04-15T02:11:59.447Z,75.73
2023-04-15T02:12:59.422Z,76.66
2023-04-15T02:13:59.401Z,76.15
2023-04-15T02:14:59.366Z,77.90
2023-04-15T02:15:59.414Z,77.86
2023-04-15T02:16:59.485Z,78.17
2023-04-15T02:17:59.393Z,78.07
2023-04-15T02:18:59.501Z,76.28
2023-04-15T02:19:59.320Z,75.97
2023-04-15T02:20:59.354Z,76.90
2023-04-15T02:21:59.307Z,75.15
2023-04-15T02:22:59.339Z,74.43
2023-04-15T02:23:59.325Z,73.71
2023-04-15T02:24:59.354Z,75.18
2023-04-15T02:25:59.279Z,76.63
2023-04-15T02:26:59.264Z,78.07
2023-04-15T02:27:59.251Z,78.65
2023-04-15T02:28:59.473Z,76.90
2023-04-15T02:29:59.235Z,74.74
2023-04-15T02:30:59.237Z,74.95
2023-04-15T02:31:59.290Z,74.63
2023-04-15T02:32:59.202Z,73.54
2023-04-15T02:33:59.343Z,75.81
2023-04-15T02:34:59.268Z,76.83
2023-04-15T02:35:59.202Z,75.29
2023-04-15T02:36:59.241Z,75.90
2023-04-15T02:37:59.166Z,75.90
2023-04-15T02:38:59.254Z,78.17
2023-04-15T02:39:59.145Z,79.00
2023-04-15T02:40:59.142Z,78.58
2023-04-15T02:41:59.113Z,79.06
2023-04-15T02:42:59.146Z,76.79
2023-04-15T02:43:59.105Z,78.30
2023-04-15T02:44:59.134Z,77.48
2023-04-15T02:45:59.385Z,76.93
2023-04-15T02:46:59.070Z,76.11
2023-04-15T02:47:59.092Z,75.04
2023-04-15T02:48:59.304Z,75.87
2023-04-15T02:49:59.101Z,74.43
2023-04-15T02:50:59.092Z,71.07
2023-04-15T02:51:59.025Z,73.47
2023-04-15T02:52:59.057Z,75.94
2023-04-15T02:53:59.023Z,74.91
2023-04-15T02:54:59.031Z,74.12
2023-04-15T02:55:59.015Z,75.15
2023-04-15T02:56:59.049Z,75.39
2023-04-15T02:57:58.958Z,75.90
2023-04-15T02:58:59.042Z,75.43
2023-04-15T02:59:58.933Z,77.08
2023-04-15T03:00:58.987Z,76.66
2023-04-15T03:01:58.942Z,77.59
2023-04-15T03:02:59.099Z,77.08
2023-04-15T03:03:59.098Z,77.80
2023-04-15T03:04:59.003Z,77.38
2023-04-15T03:05:58.876Z,78.48
2023-04-15T03:06:58.884Z,76.32
2023-04-15T03:07:58.865Z,78.58
2023-04-15T03:08:59.023Z,77.45
2023-04-15T03:09:58.825Z,77.66
2023-04-15T03:10:58.813Z,77.31
2023-04-15T03:11:58.827Z,75.35
2023-04-15T03:12:58.798Z,75.29
2023-04-15T03:13:58.842Z,74.26
2023-04-15T03:14:59.705Z,78.21
2023-04-15T03:15:58.845Z,75.12
2023-04-15T03:16:58.785Z,75.56
2023-04-15T03:17:58.845Z,77.31
2023-04-15T03:18:58.817Z,79.27
2023-04-15T03:19:58.778Z,80.41
2023-04-15T03:20:58.704Z,77.28
2023-04-15T03:21:58.703Z,79.65
2023-04-15T03:22:58.686Z,77.08
2023-04-15T03:23:58.728Z,75.01
2023-04-15T03:24:58.771Z,75.84
2023-04-15T03:25:58.712Z,76.35
2023-04-15T03:26:58.662Z,75.94
2023-04-15T03:27:58.683Z,77.28
2023-04-15T03:28:58.750Z,77.48
2023-04-15T03:29:58.643Z,75.87
2023-04-15T03:30:58.803Z,75.46
2023-04-15T03:31:58.643Z,75.81
2023-04-15T03:32:58.674Z,78.49
2023-04-15T03:33:58.616Z,78.69
2023-04-15T03:34:58.592Z,78.90
2023-04-15T03:35:58.556Z,77.97
2023-04-15T03:36:58.564Z,78.69
2023-04-15T03:37:58.538Z,80.14
2023-04-15T03:38:58.860Z,79.79
2023-04-15T03:39:58.539Z,76.80
2023-04-15T03:40:58.501Z,76.39
2023-04-15T03:41:58.503Z,78.18
2023-04-15T03:42:58.533Z,78.49
2023-04-15T03:43:58.527Z,75.81
2023-04-15T03:44:58.504Z,76.53
2023-04-15T03:46:00.222Z,79.62
2023-04-15T03:46:58.446Z,80.96
2023-04-15T03:48:11.301Z,78.18
2023-04-15T03:48:58.471Z,77.04
2023-04-15T03:49:58.442Z,78.28
2023-04-15T03:50:58.402Z,78.86
2023-04-15T03:51:58.402Z,80.30
2023-04-15T03:52:58.404Z,79.75
2023-04-15T03:53:58.413Z,77.38
2023-04-15T03:54:58.395Z,79.10
2023-04-15T03:55:58.375Z,78.89
2023-04-15T03:56:58.349Z,78.75
2023-04-15T03:57:58.377Z,77.51
2023-04-15T03:58:58.416Z,76.79
2023-04-15T03:59:58.480Z,76.04
2023-04-15T04:00:58.321Z,75.56
2023-04-15T04:01:58.517Z,75.77
2023-04-15T04:02:58.494Z,76.70
2023-04-15T04:03:58.353Z,75.97
2023-04-15T04:04:58.243Z,77.31
2023-04-15T04:05:58.310Z,76.18
2023-04-15T04:06:58.234Z,76.28
2023-04-15T04:07:58.182Z,76.90
2023-04-15T04:08:58.227Z,77.11
2023-04-15T04:09:58.239Z,75.49
2023-04-15T04:10:58.180Z,74.77
2023-04-15T04:11:58.211Z,74.60
2023-04-15T04:12:58.126Z,77.48
2023-04-15T04:13:58.130Z,78.83
2023-04-15T04:14:58.143Z,75.15
2023-04-15T04:15:58.217Z,74.95
2023-04-15T04:16:58.300Z,77.97
2023-04-15T04:17:58.150Z,76.94
2023-04-15T04:18:58.145Z,77.39
2023-04-15T04:19:58.080Z,78.21
2023-04-15T04:20:58.086Z,77.28
2023-04-15T04:21:58.062Z,78.21
2023-04-15T04:22:58.039Z,79.08
2023-04-15T04:23:58.050Z,78.05
2023-04-15T04:24:58.042Z,80.21
2023-04-15T04:25:58.018Z,81.45
2023-04-15T04:26:58.014Z,82.79
2023-04-15T04:27:58.104Z,79.86
2023-04-15T04:28:58.029Z,81.10
2023-04-15T04:29:57.974Z,80.96
2023-04-15T04:30:57.979Z,77.15
2023-04-15T04:31:57.980Z,78.28
2023-04-15T04:32:58.985Z,78.49
2023-04-15T04:33:57.981Z,80.82
2023-04-15T04:34:57.946Z,78.14
2023-04-15T04:35:57.957Z,78.34
2023-04-15T04:36:57.913Z,76.70
2023-04-15T04:37:57.907Z,77.83
2023-04-15T04:38:57.938Z,78.55
2023-04-15T04:39:57.881Z,77.04
2023-04-15T04:40:57.871Z,75.29
2023-04-15T04:41:57.890Z,76.77
2023-04-15T04:42:58.113Z,78.52
2023-04-15T04:43:57.930Z,79.35
2023-04-15T04:44:57.911Z,77.59
2023-04-15T04:45:57.837Z,78.94
2023-04-15T04:46:57.796Z,77.39
2023-04-15T04:47:57.803Z,76.98
2023-04-15T04:48:57.809Z,77.59
2023-04-15T04:49:57.781Z,77.70
2023-04-15T04:50:57.798Z,78.25
2023-04-15T04:51:57.806Z,78.66
2023-04-15T04:52:57.749Z,79.28
2023-04-15T04:53:57.743Z,81.00
2023-04-15T04:54:57.729Z,80.38
2023-04-15T04:55:57.852Z,80.55
2023-04-15T04:56:57.789Z,80.10
2023-04-15T04:57:57.706Z,79.75
2023-04-15T04:58:57.721Z,78.52
2023-04-15T04:59:57.688Z,77.08
2023-04-15T05:00:57.682Z,77.80
2023-04-15T05:01:57.689Z,74.91
2023-04-15T05:02:57.871Z,74.08
2023-04-15T05:03:57.695Z,74.43
2023-04-15T05:04:57.615Z,75.05
2023-04-15T05:05:57.654Z,76.63
2023-04-15T05:06:57.591Z,77.52
2023-04-15T05:07:57.596Z,77.66
2023-04-15T05:08:57.612Z,75.81
2023-04-15T05:09:57.666Z,77.35
2023-04-15T05:10:57.656Z,78.08
2023-04-15T05:11:57.663Z,77.94
2023-04-15T05:12:57.527Z,79.17
2023-04-15T05:13:57.555Z,75.73
2023-04-15T05:14:57.549Z,74.02
2023-04-15T05:15:57.578Z,74.33
2023-04-15T05:16:57.533Z,74.98
2023-04-15T05:17:57.591Z,76.77
2023-04-15T05:18:57.497Z,75.32
2023-04-15T05:19:57.492Z,75.95
2023-04-15T05:20:57.499Z,78.35
2023-04-15T05:21:57.450Z,78.21
2023-04-15T05:22:57.474Z,76.77
2023-04-15T05:23:57.432Z,76.70
2023-04-15T05:24:57.439Z,76.90
2023-04-15T05:25:57.424Z,77.42
2023-04-15T05:26:57.427Z,77.73
2023-04-15T05:27:57.434Z,80.42
2023-04-15T05:28:57.389Z,81.93
2023-04-15T05:29:57.395Z,80.04
2023-04-15T05:30:57.419Z,78.97
2023-04-15T05:31:57.360Z,78.00
2023-04-15T05:32:57.409Z,77.14
2023-04-15T05:33:57.361Z,75.90
2023-04-15T05:34:57.333Z,74.36
2023-04-15T05:35:57.340Z,74.60
2023-04-15T05:36:57.300Z,74.40
2023-04-15T05:37:57.346Z,73.81
2023-04-15T05:38:57.339Z,74.02
2023-04-15T05:39:57.259Z,75.91
2023-04-15T05:40:57.974Z,74.57
2023-04-15T05:41:57.283Z,75.39
2023-04-15T05:42:57.265Z,75.95
2023-04-15T05:43:57.233Z,76.73
2023-04-15T05:44:57.243Z,75.53
2023-04-15T05:45:57.309Z,75.74
2023-04-15T05:46:57.220Z,76.56
2023-04-15T05:47:57.265Z,75.63
2023-04-15T05:48:57.315Z,75.46
2023-04-15T05:49:57.193Z,76.60
2023-04-15T05:50:57.231Z,77.11
2023-04-15T05:51:57.149Z,77.11
2023-04-15T05:52:57.161Z,80.00
2023-04-15T05:53:57.128Z,81.00
2023-04-15T05:54:57.109Z,77.45
2023-04-15T05:55:57.125Z,75.18
2023-04-15T05:56:57.121Z,76.12
2023-04-15T05:57:57.084Z,75.70
2023-04-15T05:58:57.095Z,76.12
2023-04-15T05:59:57.157Z,77.25
2023-04-15T06:00:57.062Z,75.39
2023-04-15T06:01:57.149Z,74.67
2023-04-15T06:02:57.158Z,77.87
2023-04-15T06:03:57.199Z,78.45
2023-04-15T06:04:57.103Z,74.50
2023-04-15T06:05:57.031Z,75.73
2023-04-15T06:06:57.018Z,76.32
2023-04-15T06:07:57.099Z,74.98
2023-04-15T06:08:57.154Z,73.23
2023-04-15T06:09:56.955Z,73.13
2023-04-15T06:10:56.962Z,73.13
2023-04-15T06:11:57.052Z,73.85
2023-04-15T06:12:56.972Z,73.43
2023-04-15T06:13:56.936Z,73.85
2023-04-15T06:14:58.944Z,73.13
2023-04-15T06:15:56.934Z,72.92
2023-04-15T06:16:56.909Z,74.05
2023-04-15T06:17:57.009Z,74.36
2023-04-15T06:18:56.960Z,72.41
2023-04-15T06:19:56.876Z,71.51
2023-04-15T06:20:56.906Z,72.96
2023-04-15T06:21:56.847Z,75.32
2023-04-15T06:22:56.854Z,74.19
2023-04-15T06:23:56.858Z,75.32
2023-04-15T06:24:56.835Z,73.02
2023-04-15T06:25:57.324Z,73.02
2023-04-15T06:26:56.799Z,72.81
2023-04-15T06:27:56.814Z,75.01
2023-04-15T06:28:56.837Z,74.88
2023-04-15T06:29:56.765Z,73.74
2023-04-15T06:30:56.797Z,74.67
2023-04-15T06:31:56.815Z,71.89
2023-04-15T06:32:56.811Z,75.43
2023-04-15T06:33:56.783Z,74.57
2023-04-15T06:34:56.799Z,73.23
2023-04-15T06:35:56.707Z,70.45
2023-04-15T06:36:56.701Z,70.89
2023-04-15T06:37:56.739Z,72.96
2023-04-15T06:38:56.691Z,72.23
2023-04-15T06:39:56.733Z,72.23
2023-04-15T06:40:56.702Z,73.05
2023-04-15T06:41:56.677Z,72.64
2023-04-15T06:42:56.661Z,72.13
2023-04-15T06:43:56.660Z,72.75
2023-04-15T06:44:56.635Z,72.75
2023-04-15T06:45:57.225Z,73.26
2023-04-15T06:46:56.617Z,72.44
2023-04-15T06:47:56.661Z,71.61
2023-04-15T06:48:56.592Z,71.37
2023-04-15T06:49:56.583Z,71.99
2023-04-15T06:50:56.600Z,69.83
2023-04-15T06:51:56.575Z,70.55
2023-04-15T06:52:56.555Z,73.30
2023-04-15T06:53:56.529Z,71.86
2023-04-15T06:54:56.521Z,69.56
2023-04-15T06:55:56.526Z,69.87
2023-04-15T06:56:56.588Z,70.52
2023-04-15T06:57:56.510Z,68.33
2023-04-15T06:58:56.493Z,67.24
2023-04-15T06:59:56.484Z,65.67
2023-04-15T07:00:56.469Z,66.56
2023-04-15T07:01:56.500Z,64.59
2023-04-15T07:02:56.513Z,64.25
2023-04-15T07:03:56.442Z,62.84
2023-04-15T07:04:56.480Z,62.12
2023-04-15T07:05:56.420Z,64.45
2023-04-15T07:06:56.506Z,61.71
2023-04-15T07:07:56.407Z,64.51
2023-04-15T07:08:56.413Z,63.69
2023-04-15T07:09:56.362Z,65.54
2023-04-15T07:10:56.385Z,65.64
2023-04-15T07:11:56.373Z,65.92
2023-04-15T07:12:56.372Z,66.43
2023-04-15T07:13:56.380Z,63.84
2023-04-15T07:14:56.417Z,64.56
2023-04-15T07:15:56.314Z,64.56
2023-04-15T07:16:56.533Z,64.97
2023-04-15T07:17:56.426Z,63.32
2023-04-15T07:18:56.327Z,65.99
2023-04-15T07:19:56.266Z,64.35
2023-04-15T07:20:56.552Z,63.12
2023-04-15T07:21:56.265Z,65.24
2023-04-15T07:22:56.260Z,61.86
2023-04-15T07:23:56.270Z,62.19
2023-04-15T07:24:56.308Z,65.07
2023-04-15T07:25:56.211Z,64.65
2023-04-15T07:26:56.861Z,63.40
2023-04-15T07:27:56.227Z,63.50
2023-04-15T07:28:56.171Z,61.35
2023-04-15T07:29:56.300Z,60.91
2023-04-15T07:30:56.177Z,61.01
2023-04-15T07:31:56.216Z,59.45
2023-04-15T07:32:56.217Z,58.53
2023-04-15T07:33:56.120Z,58.09
2023-04-15T07:34:56.134Z,58.81
2023-04-15T07:35:56.100Z,59.01
2023-04-15T07:36:56.112Z,59.01
2023-04-15T07:37:56.089Z,59.22
2023-04-15T07:38:56.068Z,59.12
2023-04-15T07:39:56.057Z,59.32
2023-04-15T07:40:56.085Z,59.63
2023-04-15T07:41:56.042Z,60.03
2023-04-15T07:42:56.128Z,59.94
2023-04-15T07:43:56.100Z,60.03
2023-04-15T07:44:56.029Z,60.24
2023-04-15T07:45:56.070Z,60.47
2023-04-15T07:46:56.002Z,60.78
2023-04-15T07:47:56.022Z,61.52
2023-04-15T07:48:55.986Z,62.14
2023-04-15T07:49:56.002Z,62.04
2023-04-15T07:50:56.248Z,62.11
2023-04-15T07:51:55.940Z,62.21
2023-04-15T07:52:55.952Z,62.11
2023-04-15T07:53:56.507Z,61.98
2023-04-15T07:54:56.242Z,61.98
2023-04-15T07:55:55.958Z,61.88
2023-04-15T07:56:56.020Z,61.75
2023-04-15T07:57:55.883Z,61.03
2023-04-15T07:58:55.901Z,61.31
2023-04-15T07:59:55.855Z,61.31
2023-04-15T08:00:55.885Z,61.00
2023-04-15T08:01:55.873Z,61.00
2023-04-15T08:02:55.933Z,61.08
2023-04-15T08:03:56.022Z,60.77
2023-04-15T08:04:55.965Z,60.85
2023-04-15T08:05:55.925Z,60.13
2023-04-15T08:06:55.862Z,59.82
2023-04-15T08:07:55.830Z,59.18
2023-04-15T08:08:55.809Z,59.18
2023-04-15T08:09:55.745Z,59.05
2023-04-15T08:10:55.770Z,59.26
2023-04-15T08:11:55.756Z,59.36
2023-04-15T08:12:55.749Z,59.16
2023-04-15T08:13:55.816Z,59.16
2023-04-15T08:14:55.704Z,59.03
2023-04-15T08:15:55.716Z,58.92
2023-04-15T08:16:55.762Z,58.92
2023-04-15T08:17:55.760Z,58.82
2023-04-15T08:18:55.661Z,59.26
2023-04-15T08:19:55.793Z,59.36
2023-04-15T08:20:55.709Z,59.46
2023-04-15T08:21:55.696Z,59.36
2023-04-15T08:22:55.640Z,59.56
2023-04-15T08:23:55.688Z,59.66
2023-04-15T08:24:55.654Z,59.16
2023-04-15T08:25:55.609Z,59.46
2023-04-15T08:26:55.878Z,59.77
2023-04-15T08:27:55.569Z,60.21
2023-04-15T08:28:55.568Z,59.77
2023-04-15T08:29:55.547Z,59.36
2023-04-15T08:30:55.545Z,59.56
2023-04-15T08:31:55.618Z,59.36
2023-04-15T08:32:55.608Z,59.16
2023-04-15T08:33:55.604Z,59.36
2023-04-15T08:34:55.526Z,59.05
2023-04-15T08:35:55.492Z,59.46
2023-04-15T08:36:55.480Z,59.80
2023-04-15T08:37:55.508Z,59.80
2023-04-15T08:38:55.490Z,59.36
2023-04-15T08:39:55.468Z,59.56
2023-04-15T08:40:55.663Z,58.51
2023-04-15T08:41:55.449Z,57.70
2023-04-15T08:42:55.417Z,57.98
2023-04-15T08:43:55.463Z,57.44
2023-04-15T08:44:55.417Z,57.14
2023-04-15T08:45:55.406Z,56.81
2023-04-15T08:46:55.422Z,56.81
2023-04-15T08:47:55.439Z,56.47
2023-04-15T08:48:55.428Z,56.07
2023-04-15T08:49:55.346Z,55.83
2023-04-15T08:50:55.420Z,55.73
2023-04-15T08:51:55.374Z,55.83
2023-04-15T08:52:55.367Z,56.16
2023-04-15T08:53:55.358Z,56.37
2023-04-15T08:54:55.322Z,56.60
2023-04-15T08:55:55.295Z,57.01
2023-04-15T08:56:55.338Z,57.29
2023-04-15T08:57:55.299Z,56.88
2023-04-15T08:58:55.337Z,56.55
2023-04-15T08:59:55.304Z,56.14
2023-04-15T09:00:55.353Z,55.94
2023-04-15T09:01:55.342Z,55.83
2023-04-15T09:02:55.352Z,55.63
2023-04-15T09:03:55.431Z,55.73
2023-04-15T09:04:55.282Z,54.90
2023-04-15T09:05:55.398Z,55.40
2023-04-15T09:06:55.278Z,54.69
2023-04-15T09:07:55.263Z,54.77
2023-04-15T09:08:55.337Z,54.97
2023-04-15T09:09:55.258Z,53.65
2023-04-15T09:10:55.297Z,53.75
2023-04-15T09:11:55.241Z,53.65
2023-04-15T09:12:55.109Z,54.49
2023-04-15T09:13:55.156Z,54.18
2023-04-15T09:14:55.108Z,54.49
2023-04-15T09:15:55.262Z,54.49
2023-04-15T09:16:55.214Z,54.90
2023-04-15T09:17:55.115Z,55.00
2023-04-15T09:18:55.109Z,55.00
2023-04-15T09:19:55.078Z,54.69
2023-04-15T09:20:55.138Z,55.20
2023-04-15T09:21:57.311Z,54.39
2023-04-15T09:22:55.047Z,54.79
2023-04-15T09:23:55.014Z,54.69
2023-04-15T09:24:55.011Z,54.49
2023-04-15T09:25:55.012Z,54.69
2023-04-15T09:26:54.987Z,54.77
2023-04-15T09:27:55.000Z,54.26
2023-04-15T09:28:54.963Z,54.59
2023-04-15T09:29:54.957Z,53.67
2023-04-15T09:30:55.216Z,54.08
2023-04-15T09:31:54.930Z,49.10
2023-04-15T09:32:54.964Z,50.52
2023-04-15T09:33:54.943Z,50.29
2023-04-15T09:34:54.892Z,49.58
2023-04-15T09:35:54.892Z,47.25
2023-04-15T09:36:54.947Z,45.90
2023-04-15T09:37:54.973Z,43.37
2023-04-15T09:38:54.874Z,42.96
2023-04-15T09:39:54.885Z,41.94
2023-04-15T09:40:54.825Z,41.96
2023-04-15T09:41:54.847Z,42.57
2023-04-15T09:42:54.933Z,42.37
2023-04-15T09:43:54.845Z,42.29
2023-04-15T09:44:54.806Z,42.27
2023-04-15T09:45:54.870Z,41.35
2023-04-15T09:46:54.872Z,41.56
2023-04-15T09:47:56.804Z,41.56
2023-04-15T09:48:54.764Z,40.72
2023-04-15T09:49:54.826Z,40.32
2023-04-15T09:50:54.772Z,40.83
2023-04-15T09:52:04.390Z,41.11
2023-04-15T09:52:54.791Z,40.30
2023-04-15T09:53:54.733Z,40.50
2023-04-15T09:54:54.679Z,40.59
2023-04-15T09:55:54.798Z,41.40
2023-04-15T09:56:54.682Z,39.98
2023-04-15T09:57:54.682Z,39.67
2023-04-15T09:58:54.679Z,39.96
2023-04-15T09:59:54.660Z,40.36
2023-04-15T10:00:54.646Z,39.65
2023-04-15T10:01:54.722Z,37.93
2023-04-15T10:02:54.819Z,39.26
2023-04-15T10:03:54.683Z,38.45
2023-04-15T10:04:54.607Z,39.06
2023-04-15T10:05:54.642Z,38.86
2023-04-15T10:06:54.591Z,38.74
2023-04-15T10:07:54.599Z,38.84
2023-04-15T10:08:54.535Z,38.25
2023-04-15T10:09:54.570Z,38.66
2023-04-15T10:10:54.642Z,38.86
2023-04-15T10:11:54.582Z,39.06
2023-04-15T10:12:54.532Z,38.86
2023-04-15T10:13:54.515Z,38.86
2023-04-15T10:14:54.491Z,38.76
2023-04-15T10:15:54.625Z,39.06
2023-04-15T10:16:54.494Z,39.37
2023-04-15T10:17:54.545Z,39.37
2023-04-15T10:18:54.464Z,38.86
2023-04-15T10:19:54.466Z,39.69
2023-04-15T10:20:54.486Z,40.22
2023-04-15T10:21:54.485Z,40.42
2023-04-15T10:22:54.425Z,40.50
2023-04-15T10:23:54.400Z,40.70
2023-04-15T10:24:54.415Z,40.69
2023-04-15T10:25:54.417Z,40.69
2023-04-15T10:26:54.366Z,40.16
2023-04-15T10:27:54.372Z,40.47
2023-04-15T10:28:54.383Z,40.56
2023-04-15T10:29:54.375Z,40.87
2023-04-15T10:30:54.396Z,40.26
2023-04-15T10:31:54.349Z,40.79
2023-04-15T10:32:54.421Z,41.07
2023-04-15T10:33:54.307Z,39.86
2023-04-15T10:34:54.749Z,38.64
2023-04-15T10:35:54.406Z,37.74
2023-04-15T10:36:54.309Z,38.66
2023-04-15T10:37:54.293Z,38.96
2023-04-15T10:38:54.250Z,38.43
2023-04-15T10:39:54.384Z,38.43
2023-04-15T10:40:54.261Z,38.34
2023-04-15T10:41:54.328Z,38.43
2023-04-15T10:42:54.302Z,38.54
2023-04-15T10:43:54.253Z,38.76
2023-04-15T10:44:54.239Z,38.76
2023-04-15T10:45:54.185Z,38.76
2023-04-15T10:46:54.415Z,38.45
2023-04-15T10:47:54.229Z,37.74
2023-04-15T10:48:54.163Z,37.04
2023-04-15T10:49:54.476Z,36.73
2023-04-15T10:50:54.138Z,35.51
2023-04-15T10:51:54.390Z,35.41
2023-04-15T10:52:54.171Z,33.89
2023-04-15T10:53:54.127Z,34.60
2023-04-15T10:54:54.075Z,34.80
2023-04-15T10:55:54.203Z,35.00
2023-04-15T10:56:54.144Z,35.41
2023-04-15T10:57:54.104Z,35.72
2023-04-15T10:58:54.072Z,36.22
2023-04-15T10:59:54.393Z,36.63
2023-04-15T11:00:54.137Z,36.02
2023-04-15T11:01:54.270Z,34.39
2023-04-15T11:02:54.227Z,33.89
2023-04-15T11:03:54.152Z,34.61
2023-04-15T11:04:55.070Z,35.02
2023-04-15T11:05:54.034Z,35.42
2023-04-15T11:06:53.972Z,35.94
2023-04-15T11:07:54.021Z,35.83
2023-04-15T11:08:53.957Z,36.34
2023-04-15T11:09:53.988Z,36.34
2023-04-15T11:10:53.922Z,35.63
2023-04-15T11:11:53.931Z,35.73
2023-04-15T11:12:53.966Z,36.24
2023-04-15T11:13:53.964Z,36.44
2023-04-15T11:14:53.963Z,36.95
2023-04-15T11:15:53.999Z,36.43
2023-04-15T11:16:53.931Z,35.61
2023-04-15T11:17:53.904Z,34.80
2023-04-15T11:18:54.927Z,34.60
2023-04-15T11:19:53.831Z,35.00
2023-04-15T11:20:53.816Z,35.19
2023-04-15T11:21:53.871Z,35.39
2023-04-15T11:23:13.937Z,35.60
2023-04-15T11:23:53.800Z,35.92
2023-04-15T11:24:53.789Z,36.53
2023-04-15T11:25:53.794Z,36.00
2023-04-15T11:26:53.852Z,35.88
2023-04-15T11:27:53.764Z,35.68
2023-04-15T11:28:53.808Z,35.66
2023-04-15T11:29:53.803Z,35.68
2023-04-15T11:30:53.768Z,35.90
2023-04-15T11:31:53.842Z,35.70
2023-04-15T11:32:53.748Z,36.41
2023-04-15T11:33:53.740Z,36.61
2023-04-15T11:34:53.834Z,36.91
2023-04-15T11:35:53.877Z,37.42
2023-04-15T11:36:53.681Z,37.42
2023-04-15T11:37:55.562Z,37.64
2023-04-15T11:38:53.753Z,38.05
2023-04-15T11:39:53.709Z,38.45
2023-04-15T11:40:53.728Z,38.76
2023-04-15T11:41:53.676Z,38.56
2023-04-15T11:42:55.879Z,39.06
2023-04-15T11:43:53.644Z,38.86
2023-04-15T11:44:53.707Z,38.66
2023-04-15T11:45:53.679Z,39.26
2023-04-15T11:46:53.617Z,39.49
2023-04-15T11:47:53.644Z,39.69
2023-04-15T11:48:53.614Z,39.79
2023-04-15T11:49:53.612Z,40.20
2023-04-15T11:50:53.627Z,40.08
2023-04-15T11:51:53.563Z,39.98
2023-04-15T11:52:53.636Z,40.08
2023-04-15T11:53:53.857Z,40.38
2023-04-15T11:54:53.549Z,40.89
2023-04-15T11:55:53.499Z,41.31
2023-04-15T11:56:53.632Z,41.52
2023-04-15T11:57:53.496Z,41.60
2023-04-15T11:58:53.459Z,41.60
2023-04-15T11:59:55.493Z,41.50
2023-04-15T12:00:53.480Z,41.80
2023-04-15T12:01:53.481Z,42.11
2023-04-15T12:02:53.648Z,42.61
2023-04-15T12:03:53.759Z,42.54
2023-04-15T12:04:53.488Z,42.72
2023-04-15T12:05:53.465Z,42.72
2023-04-15T12:06:53.594Z,42.49
2023-04-15T12:07:53.336Z,42.49
2023-04-15T12:08:53.617Z,42.90
2023-04-15T12:09:53.460Z,43.20
2023-04-15T12:10:53.356Z,43.61
2023-04-15T12:11:53.337Z,44.04
2023-04-15T12:12:53.287Z,44.42
2023-04-15T12:13:53.331Z,44.22
2023-04-15T12:14:53.528Z,44.22
2023-04-15T12:15:53.319Z,44.52
2023-04-15T12:16:53.344Z,44.30
2023-04-15T12:17:53.320Z,44.50
2023-04-15T12:18:53.470Z,45.03
2023-04-15T12:19:53.280Z,45.54
2023-04-15T12:20:53.332Z,45.76
2023-04-15T12:21:53.643Z,45.97
2023-04-15T12:22:53.260Z,46.27
2023-04-15T12:23:53.265Z,46.49
2023-04-15T12:24:53.219Z,46.59
2023-04-15T12:25:53.216Z,46.80
2023-04-15T12:26:53.338Z,47.00
2023-04-15T12:27:53.239Z,47.20
2023-04-15T12:28:53.235Z,47.53
2023-04-15T12:29:53.281Z,47.74
2023-04-15T12:30:53.146Z,48.04
2023-04-15T12:31:53.151Z,48.55
2023-04-15T12:32:53.164Z,48.57
2023-04-15T12:33:53.202Z,48.97
2023-04-15T12:34:53.102Z,49.08
2023-04-15T12:35:53.109Z,48.97
2023-04-15T12:36:53.123Z,49.18
2023-04-15T12:37:53.113Z,49.28
2023-04-15T12:38:53.059Z,49.48
2023-04-15T12:39:53.349Z,50.20
2023-04-15T12:40:53.057Z,51.11
2023-04-15T12:41:53.029Z,50.50
2023-04-15T12:42:53.054Z,51.11
2023-04-15T12:43:53.229Z,51.42
2023-04-15T12:44:53.058Z,51.72
2023-04-15T12:45:53.177Z,52.33
2023-04-15T12:46:53.808Z,51.72
2023-04-15T12:47:53.081Z,51.11
2023-04-15T12:48:52.969Z,51.21
2023-04-15T12:49:53.041Z,51.72
2023-04-15T12:50:52.940Z,51.51
2023-04-15T12:51:52.981Z,51.72